sensor_id;sensor_type;location;lat;lon;timestamp;pressure;altitude;pressure_sealevel;temperature;humidity
3250;BME280;1637;42.020;23.992;2023-05-03T00:01:35;93251.19;;;11.15;81.46
3250;BME280;1637;42.020;23.992;2023-05-03T00:04:04;93245.34;;;11.34;81.04
3250;BME280;1637;42.020;23.992;2023-05-03T00:06:30;93241.25;;;11.16;81.20
3250;BME280;1637;42.020;23.992;2023-05-03T00:08:57;93244.44;;;10.93;77.20
3250;BME280;1637;42.020;23.992;2023-05-03T00:11:24;93239.50;;;10.81;75.25
3250;BME280;1637;42.020;23.992;2023-05-03T00:13:51;93227.34;;;10.62;76.56
3250;BME280;1637;42.020;23.992;2023-05-03T00:16:18;93228.56;;;10.47;77.75
3250;BME280;1637;42.020;23.992;2023-05-03T00:18:45;93228.59;;;10.40;76.41
3250;BME280;1637;42.020;23.992;2023-05-03T00:21:13;93237.00;;;10.45;76.50
3250;BME280;1637;42.020;23.992;2023-05-03T00:23:40;93225.03;;;10.71;76.78
3250;BME280;1637;42.020;23.992;2023-05-03T00:26:07;93229.88;;;10.94;74.90
3250;BME280;1637;42.020;23.992;2023-05-03T00:28:34;93231.19;;;10.61;76.41
3250;BME280;1637;42.020;23.992;2023-05-03T00:31:06;93229.38;;;11.13;74.24
3250;BME280;1637;42.020;23.992;2023-05-03T00:33:34;93225.50;;;11.21;72.63
3250;BME280;1637;42.020;23.992;2023-05-03T00:36:06;93219.91;;;10.98;75.22
3250;BME280;1637;42.020;23.992;2023-05-03T00:38:35;93219.28;;;10.69;76.71
3250;BME280;1637;42.020;23.992;2023-05-03T00:41:02;93225.50;;;11.21;74.78
3250;BME280;1637;42.020;23.992;2023-05-03T00:43:29;93229.13;;;10.90;75.02
3250;BME280;1637;42.020;23.992;2023-05-03T00:45:57;93215.13;;;11.23;74.27
3250;BME280;1637;42.020;23.992;2023-05-03T00:48:24;93207.13;;;11.20;73.95
3250;BME280;1637;42.020;23.992;2023-05-03T00:50:52;93219.41;;;11.17;74.42
3250;BME280;1637;42.020;23.992;2023-05-03T00:53:20;93231.22;;;11.23;73.50
3250;BME280;1637;42.020;23.992;2023-05-03T00:55:51;93213.66;;;11.19;75.11
3250;BME280;1637;42.020;23.992;2023-05-03T00:58:18;93213.53;;;11.36;74.83
3250;BME280;1637;42.020;23.992;2023-05-03T01:00:46;93217.03;;;11.26;76.01
3250;BME280;1637;42.020;23.992;2023-05-03T01:03:13;93224.31;;;11.26;76.12
3250;BME280;1637;42.020;23.992;2023-05-03T01:05:47;93214.81;;;11.18;76.04
3250;BME280;1637;42.020;23.992;2023-05-03T01:08:22;93202.88;;;11.22;75.19
3250;BME280;1637;42.020;23.992;2023-05-03T01:11:01;93176.19;;;11.05;75.96
3250;BME280;1637;42.020;23.992;2023-05-03T01:13:39;93191.63;;;10.90;77.05
3250;BME280;1637;42.020;23.992;2023-05-03T01:16:15;93203.13;;;10.87;77.29
3250;BME280;1637;42.020;23.992;2023-05-03T01:18:45;93196.34;;;10.68;79.63
3250;BME280;1637;42.020;23.992;2023-05-03T01:21:16;93203.50;;;10.89;78.06
3250;BME280;1637;42.020;23.992;2023-05-03T01:23:52;93187.09;;;10.80;78.36
3250;BME280;1637;42.020;23.992;2023-05-03T01:26:23;93172.97;;;10.72;78.89
3250;BME280;1637;42.020;23.992;2023-05-03T01:28:51;93190.81;;;10.20;81.29
3250;BME280;1637;42.020;23.992;2023-05-03T01:31:21;93174.94;;;10.61;79.82
3250;BME280;1637;42.020;23.992;2023-05-03T01:34:18;93176.44;;;10.65;78.89
3250;BME280;1637;42.020;23.992;2023-05-03T01:36:48;93171.78;;;10.80;77.78
3250;BME280;1637;42.020;23.992;2023-05-03T01:39:19;93174.53;;;10.66;79.14
3250;BME280;1637;42.020;23.992;2023-05-03T01:41:49;93172.97;;;10.72;78.06
3250;BME280;1637;42.020;23.992;2023-05-03T01:44:17;93166.59;;;10.45;77.74
3250;BME280;1637;42.020;23.992;2023-05-03T01:46:45;93154.47;;;10.22;78.76
3250;BME280;1637;42.020;23.992;2023-05-03T01:49:12;93165.91;;;10.37;78.92
3250;BME280;1637;42.020;23.992;2023-05-03T01:51:39;93166.59;;;10.48;80.92
3250;BME280;1637;42.020;23.992;2023-05-03T01:54:06;93172.44;;;10.22;82.91
3250;BME280;1637;42.020;23.992;2023-05-03T01:56:34;93166.75;;;10.09;83.18
3250;BME280;1637;42.020;23.992;2023-05-03T01:59:03;93152.19;;;10.14;83.57
3250;BME280;1637;42.020;23.992;2023-05-03T02:01:30;93160.25;;;10.03;81.50
3250;BME280;1637;42.020;23.992;2023-05-03T02:03:57;93158.00;;;9.91;82.25
3250;BME280;1637;42.020;23.992;2023-05-03T02:06:24;93144.53;;;10.16;83.15
3250;BME280;1637;42.020;23.992;2023-05-03T02:08:51;93159.03;;;10.36;79.71
3250;BME280;1637;42.020;23.992;2023-05-03T02:11:18;93148.72;;;10.24;80.95
3250;BME280;1637;42.020;23.992;2023-05-03T02:13:47;93147.16;;;10.33;81.65
3250;BME280;1637;42.020;23.992;2023-05-03T02:16:16;93147.44;;;10.53;78.72
3250;BME280;1637;42.020;23.992;2023-05-03T02:18:43;93133.69;;;10.48;79.58
3250;BME280;1637;42.020;23.992;2023-05-03T02:21:10;93140.09;;;10.64;77.41
3250;BME280;1637;42.020;23.992;2023-05-03T02:23:37;93144.00;;;10.56;78.92
3250;BME280;1637;42.020;23.992;2023-05-03T02:26:04;93147.06;;;10.51;79.26
3250;BME280;1637;42.020;23.992;2023-05-03T02:28:31;93144.28;;;10.69;78.60
3250;BME280;1637;42.020;23.992;2023-05-03T02:30:58;93137.78;;;10.66;76.83
3250;BME280;1637;42.020;23.992;2023-05-03T02:33:26;93151.56;;;10.68;76.41
3250;BME280;1637;42.020;23.992;2023-05-03T02:35:53;93151.25;;;10.56;77.71
3250;BME280;1637;42.020;23.992;2023-05-03T02:38:20;93152.78;;;10.57;75.69
3250;BME280;1637;42.020;23.992;2023-05-03T02:40:47;93155.13;;;10.44;75.19
3250;BME280;1637;42.020;23.992;2023-05-03T02:43:13;93171.19;;;10.48;75.25
3250;BME280;1637;42.020;23.992;2023-05-03T02:45:41;93162.75;;;10.53;75.00
3250;BME280;1637;42.020;23.992;2023-05-03T02:48:08;93162.69;;;10.60;75.32
3250;BME280;1637;42.020;23.992;2023-05-03T02:50:37;93149.88;;;10.23;78.09
3250;BME280;1637;42.020;23.992;2023-05-03T02:53:04;93155.63;;;10.18;79.36
3250;BME280;1637;42.020;23.992;2023-05-03T02:55:31;93150.59;;;10.34;78.80
3250;BME280;1637;42.020;23.992;2023-05-03T02:57:58;93170.44;;;10.44;77.67
3250;BME280;1637;42.020;23.992;2023-05-03T03:00:25;93173.16;;;10.37;76.64
3250;BME280;1637;42.020;23.992;2023-05-03T03:02:52;93157.50;;;10.35;75.98
3250;BME280;1637;42.020;23.992;2023-05-03T03:05:19;93081.66;;;9.72;76.37
3250;BME280;1637;42.020;23.992;2023-05-03T03:07:47;93181.88;;;10.58;75.48
3250;BME280;1637;42.020;23.992;2023-05-03T03:10:14;93190.31;;;10.50;74.67
3250;BME280;1637;42.020;23.992;2023-05-03T03:12:41;93194.97;;;10.31;73.76
3250;BME280;1637;42.020;23.992;2023-05-03T03:15:09;93198.44;;;10.32;73.67
3250;BME280;1637;42.020;23.992;2023-05-03T03:17:36;93209.53;;;10.23;74.31
3250;BME280;1637;42.020;23.992;2023-05-03T03:20:05;93203.31;;;10.51;73.33
3250;BME280;1637;42.020;23.992;2023-05-03T03:22:32;93214.00;;;10.58;73.76
3250;BME280;1637;42.020;23.992;2023-05-03T03:25:00;93175.84;;;10.37;72.85
3250;BME280;1637;42.020;23.992;2023-05-03T03:27:27;93208.22;;;10.67;72.67
3250;BME280;1637;42.020;23.992;2023-05-03T03:29:54;93220.53;;;10.50;72.56
3250;BME280;1637;42.020;23.992;2023-05-03T03:32:21;93219.78;;;10.50;72.85
3250;BME280;1637;42.020;23.992;2023-05-03T03:34:47;93232.38;;;10.56;72.65
3250;BME280;1637;42.020;23.992;2023-05-03T03:37:14;93243.09;;;10.53;72.59
3250;BME280;1637;42.020;23.992;2023-05-03T03:39:41;93245.03;;;10.49;73.30
3250;BME280;1637;42.020;23.992;2023-05-03T03:42:10;93253.81;;;10.49;74.15
3250;BME280;1637;42.020;23.992;2023-05-03T03:44:37;93260.72;;;10.47;75.30
3250;BME280;1637;42.020;23.992;2023-05-03T03:47:04;93257.66;;;10.48;75.26
3250;BME280;1637;42.020;23.992;2023-05-03T03:49:31;93263.31;;;10.61;74.82
3250;BME280;1637;42.020;23.992;2023-05-03T03:51:58;93278.63;;;10.60;73.50
3250;BME280;1637;42.020;23.992;2023-05-03T03:54:25;93275.34;;;9.96;76.31
3250;BME280;1637;42.020;23.992;2023-05-03T03:56:52;93289.06;;;10.33;75.63
3250;BME280;1637;42.020;23.992;2023-05-03T03:59:20;93266.91;;;10.26;74.58
3250;BME280;1637;42.020;23.992;2023-05-03T04:01:47;93300.50;;;10.52;75.59
3250;BME280;1637;42.020;23.992;2023-05-03T04:04:14;93311.97;;;10.49;79.11
3250;BME280;1637;42.020;23.992;2023-05-03T04:06:40;93308.91;;;10.54;79.41
3250;BME280;1637;42.020;23.992;2023-05-03T04:09:09;93318.88;;;10.43;78.75
3250;BME280;1637;42.020;23.992;2023-05-03T04:11:36;93315.09;;;10.15;78.60
3250;BME280;1637;42.020;23.992;2023-05-03T04:14:03;93308.22;;;9.79;82.37
3250;BME280;1637;42.020;23.992;2023-05-03T04:16:31;93314.34;;;9.72;85.43
3250;BME280;1637;42.020;23.992;2023-05-03T04:18:58;93301.72;;;9.69;83.89
3250;BME280;1637;42.020;23.992;2023-05-03T04:21:25;93315.03;;;9.23;86.74
3250;BME280;1637;42.020;23.992;2023-05-03T04:23:53;93323.47;;;9.46;85.02
3250;BME280;1637;42.020;23.992;2023-05-03T04:26:20;93313.56;;;9.50;82.84
3250;BME280;1637;42.020;23.992;2023-05-03T04:28:48;93323.47;;;9.43;84.88
3250;BME280;1637;42.020;23.992;2023-05-03T04:31:16;93331.91;;;9.55;83.46
3250;BME280;1637;42.020;23.992;2023-05-03T04:33:45;93334.16;;;9.39;86.74
3250;BME280;1637;42.020;23.992;2023-05-03T04:36:12;93312.78;;;9.32;84.96
3250;BME280;1637;42.020;23.992;2023-05-03T04:38:40;93337.25;;;9.66;83.47
3250;BME280;1637;42.020;23.992;2023-05-03T04:41:07;93333.41;;;9.56;82.67
3250;BME280;1637;42.020;23.992;2023-05-03T04:43:34;93337.59;;;9.43;83.81
3250;BME280;1637;42.020;23.992;2023-05-03T04:46:01;93335.97;;;9.03;88.36
3250;BME280;1637;42.020;23.992;2023-05-03T04:48:29;93336.00;;;9.07;91.40
3250;BME280;1637;42.020;23.992;2023-05-03T04:50:57;93334.09;;;9.18;92.04
3250;BME280;1637;42.020;23.992;2023-05-03T04:53:25;93323.84;;;9.41;90.30
3250;BME280;1637;42.020;23.992;2023-05-03T04:55:51;93332.63;;;9.31;92.39
3250;BME280;1637;42.020;23.992;2023-05-03T04:58:18;93319.28;;;9.81;98.94
3250;BME280;1637;42.020;23.992;2023-05-03T05:00:45;93329.25;;;9.55;94.25
3250;BME280;1637;42.020;23.992;2023-05-03T05:03:12;93325.44;;;9.74;100.00
3250;BME280;1637;42.020;23.992;2023-05-03T05:05:38;93330.81;;;11.25;100.00
3250;BME280;1637;42.020;23.992;2023-05-03T05:08:07;93332.78;;;11.84;86.20
3250;BME280;1637;42.020;23.992;2023-05-03T05:10:36;93330.91;;;11.04;80.48
3250;BME280;1637;42.020;23.992;2023-05-03T05:13:03;93328.38;;;10.68;83.52
3250;BME280;1637;42.020;23.992;2023-05-03T05:15:30;93323.06;;;10.47;83.08
3250;BME280;1637;42.020;23.992;2023-05-03T05:17:57;93331.47;;;10.56;83.92
3250;BME280;1637;42.020;23.992;2023-05-03T05:20:24;93329.19;;;10.55;82.59
3250;BME280;1637;42.020;23.992;2023-05-03T05:22:51;93332.28;;;10.32;83.23
3250;BME280;1637;42.020;23.992;2023-05-03T05:25:19;93334.56;;;9.98;80.42
3250;BME280;1637;42.020;23.992;2023-05-03T05:27:46;93332.28;;;10.07;79.63
3250;BME280;1637;42.020;23.992;2023-05-03T05:30:13;93336.50;;;10.29;80.43
3250;BME280;1637;42.020;23.992;2023-05-03T05:32:40;93338.38;;;10.54;79.52
3250;BME280;1637;42.020;23.992;2023-05-03T05:35:08;93328.47;;;10.22;78.81
3250;BME280;1637;42.020;23.992;2023-05-03T05:37:35;93328.47;;;9.76;81.50
3250;BME280;1637;42.020;23.992;2023-05-03T05:40:02;93319.28;;;10.13;79.76
3250;BME280;1637;42.020;23.992;2023-05-03T05:42:30;93326.94;;;10.07;79.39
3250;BME280;1637;42.020;23.992;2023-05-03T05:44:57;93315.09;;;10.29;81.85
3250;BME280;1637;42.020;23.992;2023-05-03T05:47:24;93306.19;;;10.64;80.51
3250;BME280;1637;42.020;23.992;2023-05-03T05:49:51;93304.25;;;10.68;79.02
3250;BME280;1637;42.020;23.992;2023-05-03T05:52:18;93313.78;;;10.80;77.07
3250;BME280;1637;42.020;23.992;2023-05-03T05:54:44;93310.28;;;10.97;79.14
3250;BME280;1637;42.020;23.992;2023-05-03T05:57:11;93295.69;;;11.02;78.21
3250;BME280;1637;42.020;23.992;2023-05-03T05:59:40;93316.94;;;11.41;77.39
3250;BME280;1637;42.020;23.992;2023-05-03T06:02:13;93313.34;;;11.62;75.14
3250;BME280;1637;42.020;23.992;2023-05-03T06:04:40;93309.09;;;11.64;73.05
3250;BME280;1637;42.020;23.992;2023-05-03T06:07:07;93302.94;;;11.67;72.32
3250;BME280;1637;42.020;23.992;2023-05-03T06:09:34;93297.69;;;11.53;72.37
3250;BME280;1637;42.020;23.992;2023-05-03T06:12:01;93294.66;;;11.48;71.99
3250;BME280;1637;42.020;23.992;2023-05-03T06:14:28;93293.25;;;11.25;73.41
3250;BME280;1637;42.020;23.992;2023-05-03T06:16:56;93282.09;;;11.38;73.42
3250;BME280;1637;42.020;23.992;2023-05-03T06:19:24;93290.75;;;11.63;71.68
3250;BME280;1637;42.020;23.992;2023-05-03T06:21:50;93284.78;;;11.38;72.85
3250;BME280;1637;42.020;23.992;2023-05-03T06:24:17;93289.31;;;11.44;73.18
3250;BME280;1637;42.020;23.992;2023-05-03T06:26:45;93290.75;;;11.63;72.35
3250;BME280;1637;42.020;23.992;2023-05-03T06:29:15;93294.84;;;11.78;71.36
3250;BME280;1637;42.020;23.992;2023-05-03T06:31:42;93302.28;;;11.56;72.77
3250;BME280;1637;42.020;23.992;2023-05-03T06:34:10;93295.50;;;11.38;72.93
3250;BME280;1637;42.020;23.992;2023-05-03T06:36:37;93294.28;;;11.46;71.86
3250;BME280;1637;42.020;23.992;2023-05-03T06:39:04;93294.31;;;11.42;72.53
3250;BME280;1637;42.020;23.992;2023-05-03T06:41:31;93302.28;;;11.53;70.58
3250;BME280;1637;42.020;23.992;2023-05-03T06:43:58;93304.69;;;11.36;71.18
3250;BME280;1637;42.020;23.992;2023-05-03T06:46:25;93303.81;;;11.54;72.07
3250;BME280;1637;42.020;23.992;2023-05-03T06:48:52;93306.00;;;11.69;72.53
3250;BME280;1637;42.020;23.992;2023-05-03T06:51:22;93301.72;;;11.83;71.74
3250;BME280;1637;42.020;23.992;2023-05-03T06:53:52;93303.13;;;11.98;71.54
3250;BME280;1637;42.020;23.992;2023-05-03T06:56:20;93300.31;;;12.12;71.98
3250;BME280;1637;42.020;23.992;2023-05-03T06:58:47;93300.72;;;12.48;69.43
3250;BME280;1637;42.020;23.992;2023-05-03T07:01:14;93294.25;;;13.10;67.28
3250;BME280;1637;42.020;23.992;2023-05-03T07:03:41;93290.44;;;13.92;65.05
3250;BME280;1637;42.020;23.992;2023-05-03T07:06:08;93284.31;;;13.64;65.55
3250;BME280;1637;42.020;23.992;2023-05-03T07:08:36;93279.75;;;13.85;65.15
3250;BME280;1637;42.020;23.992;2023-05-03T07:11:03;93278.47;;;13.12;66.96
3250;BME280;1637;42.020;23.992;2023-05-03T07:13:30;93280.97;;;12.65;68.94
3250;BME280;1637;42.020;23.992;2023-05-03T07:15:57;93274.97;;;12.51;70.34
3250;BME280;1637;42.020;23.992;2023-05-03T07:18:24;93282.00;;;12.41;70.29
3250;BME280;1637;42.020;23.992;2023-05-03T07:20:51;93284.03;;;14.05;67.81
3250;BME280;1637;42.020;23.992;2023-05-03T07:23:18;93288.31;;;15.45;61.45
3250;BME280;1637;42.020;23.992;2023-05-03T07:25:46;93288.34;;;15.25;62.51
3250;BME280;1637;42.020;23.992;2023-05-03T07:28:13;93280.22;;;14.26;64.95
3250;BME280;1637;42.020;23.992;2023-05-03T07:30:40;93280.78;;;12.83;70.35
3250;BME280;1637;42.020;23.992;2023-05-03T07:33:06;93283.59;;;13.33;70.39
3250;BME280;1637;42.020;23.992;2023-05-03T07:35:33;93275.88;;;13.62;67.67
3250;BME280;1637;42.020;23.992;2023-05-03T07:38:00;93289.38;;;14.09;65.98
3250;BME280;1637;42.020;23.992;2023-05-03T07:40:27;93284.69;;;13.90;68.21
3250;BME280;1637;42.020;23.992;2023-05-03T07:42:58;93298.31;;;14.26;65.18
3250;BME280;1637;42.020;23.992;2023-05-03T07:45:25;93304.38;;;14.10;65.96
3250;BME280;1637;42.020;23.992;2023-05-03T07:47:54;93305.13;;;13.87;66.00
3250;BME280;1637;42.020;23.992;2023-05-03T07:50:21;93301.47;;;13.74;67.24
3250;BME280;1637;42.020;23.992;2023-05-03T07:52:47;93294.13;;;13.74;68.67
3250;BME280;1637;42.020;23.992;2023-05-03T07:55:16;93288.41;;;14.19;66.62
3250;BME280;1637;42.020;23.992;2023-05-03T07:57:43;93284.00;;;14.09;67.45
3250;BME280;1637;42.020;23.992;2023-05-03T08:00:12;93282.91;;;14.26;66.55
3250;BME280;1637;42.020;23.992;2023-05-03T08:02:40;93270.09;;;14.34;67.41
3250;BME280;1637;42.020;23.992;2023-05-03T08:05:08;93273.88;;;14.79;65.01
3250;BME280;1637;42.020;23.992;2023-05-03T08:07:38;93270.00;;;14.81;63.96
3250;BME280;1637;42.020;23.992;2023-05-03T08:10:06;93250.78;;;14.35;64.25
3250;BME280;1637;42.020;23.992;2023-05-03T08:12:32;93257.09;;;14.52;64.78
3250;BME280;1637;42.020;23.992;2023-05-03T08:14:59;93255.53;;;15.63;64.74
3250;BME280;1637;42.020;23.992;2023-05-03T08:17:27;93256.78;;;17.10;58.96
3250;BME280;1637;42.020;23.992;2023-05-03T08:19:54;93261.84;;;17.75;56.84
3250;BME280;1637;42.020;23.992;2023-05-03T08:22:21;93256.88;;;18.33;54.46
3250;BME280;1637;42.020;23.992;2023-05-03T08:24:50;93249.38;;;18.37;54.54
3250;BME280;1637;42.020;23.992;2023-05-03T08:27:18;93254.53;;;18.23;53.79
3250;BME280;1637;42.020;23.992;2023-05-03T08:29:45;93259.31;;;18.18;52.74
3250;BME280;1637;42.020;23.992;2023-05-03T08:32:11;93256.47;;;18.57;51.48
3250;BME280;1637;42.020;23.992;2023-05-03T08:34:40;93254.50;;;18.70;52.33
3250;BME280;1637;42.020;23.992;2023-05-03T08:37:07;93249.53;;;18.55;51.84
3250;BME280;1637;42.020;23.992;2023-05-03T08:39:33;93249.22;;;18.66;53.65
3250;BME280;1637;42.020;23.992;2023-05-03T08:42:05;93253.94;;;17.68;54.73
3250;BME280;1637;42.020;23.992;2023-05-03T08:44:35;93240.88;;;18.61;55.67
3250;BME280;1637;42.020;23.992;2023-05-03T08:47:04;93236.66;;;18.81;52.32
3250;BME280;1637;42.020;23.992;2023-05-03T08:49:32;93240.16;;;19.13;51.58
3250;BME280;1637;42.020;23.992;2023-05-03T08:52:01;93240.25;;;18.78;53.76
3250;BME280;1637;42.020;23.992;2023-05-03T08:54:28;93223.22;;;18.43;54.35
3250;BME280;1637;42.020;23.992;2023-05-03T08:56:55;93205.28;;;17.51;56.23
3250;BME280;1637;42.020;23.992;2023-05-03T08:59:22;93209.41;;;18.50;56.26
3250;BME280;1637;42.020;23.992;2023-05-03T09:01:50;93210.50;;;18.18;54.30
3250;BME280;1637;42.020;23.992;2023-05-03T09:04:17;93205.81;;;17.72;55.15
3250;BME280;1637;42.020;23.992;2023-05-03T09:06:43;93218.38;;;17.28;56.28
3250;BME280;1637;42.020;23.992;2023-05-03T09:09:12;93213.09;;;17.37;56.52
3250;BME280;1637;42.020;23.992;2023-05-03T09:11:41;93186.44;;;17.23;56.91
3250;BME280;1637;42.020;23.992;2023-05-03T09:14:10;93210.53;;;16.92;58.61
3250;BME280;1637;42.020;23.992;2023-05-03T09:16:37;93204.66;;;16.39;60.00
3250;BME280;1637;42.020;23.992;2023-05-03T09:19:06;93198.34;;;16.29;60.33
3250;BME280;1637;42.020;23.992;2023-05-03T09:21:36;93191.91;;;16.23;60.58
3250;BME280;1637;42.020;23.992;2023-05-03T09:24:12;93201.28;;;15.90;62.89
3250;BME280;1637;42.020;23.992;2023-05-03T09:26:40;93194.41;;;15.56;64.73
3250;BME280;1637;42.020;23.992;2023-05-03T09:29:07;93204.69;;;15.25;66.58
3250;BME280;1637;42.020;23.992;2023-05-03T09:31:35;93203.81;;;15.64;64.51
3250;BME280;1637;42.020;23.992;2023-05-03T09:34:20;93208.53;;;15.60;65.51
3250;BME280;1637;42.020;23.992;2023-05-03T09:36:47;93203.31;;;15.69;64.56
3250;BME280;1637;42.020;23.992;2023-05-03T09:39:17;93206.19;;;15.62;64.60
3250;BME280;1637;42.020;23.992;2023-05-03T09:41:44;93205.44;;;15.62;64.55
3250;BME280;1637;42.020;23.992;2023-05-03T09:44:11;93205.34;;;15.65;64.25
3250;BME280;1637;42.020;23.992;2023-05-03T09:46:38;93213.09;;;15.63;64.68
3250;BME280;1637;42.020;23.992;2023-05-03T09:49:05;93209.47;;;15.54;66.96
3250;BME280;1637;42.020;23.992;2023-05-03T09:51:32;93206.97;;;15.79;68.07
3250;BME280;1637;42.020;23.992;2023-05-03T09:53:59;93204.16;;;15.82;66.93
3250;BME280;1637;42.020;23.992;2023-05-03T09:56:29;93186.63;;;16.20;65.21
3250;BME280;1637;42.020;23.992;2023-05-03T09:58:56;93188.59;;;16.61;62.74
3250;BME280;1637;42.020;23.992;2023-05-03T10:01:24;93190.16;;;16.45;62.89
3250;BME280;1637;42.020;23.992;2023-05-03T10:03:53;93188.78;;;16.41;67.33
3250;BME280;1637;42.020;23.992;2023-05-03T10:06:23;93185.09;;;16.47;69.42
3250;BME280;1637;42.020;23.992;2023-05-03T10:08:55;93188.97;;;16.46;71.51
3250;BME280;1637;42.020;23.992;2023-05-03T10:11:25;93190.91;;;16.33;73.66
3250;BME280;1637;42.020;23.992;2023-05-03T10:13:54;93183.38;;;16.25;76.50
3250;BME280;1637;42.020;23.992;2023-05-03T10:16:25;93178.63;;;16.16;75.38
3250;BME280;1637;42.020;23.992;2023-05-03T10:18:57;93185.41;;;15.92;75.22
3250;BME280;1637;42.020;23.992;2023-05-03T10:21:34;93184.75;;;15.71;75.57
3250;BME280;1637;42.020;23.992;2023-05-03T10:24:11;93174.28;;;15.73;76.16
3250;BME280;1637;42.020;23.992;2023-05-03T10:26:41;93170.38;;;15.91;75.92
3250;BME280;1637;42.020;23.992;2023-05-03T10:29:45;93178.63;;;16.16;74.76
3250;BME280;1637;42.020;23.992;2023-05-03T10:32:40;93178.31;;;15.81;73.03
3250;BME280;1637;42.020;23.992;2023-05-03T10:35:12;93184.06;;;15.84;74.84
3250;BME280;1637;42.020;23.992;2023-05-03T10:37:40;93186.25;;;15.89;72.64
3250;BME280;1637;42.020;23.992;2023-05-03T10:40:09;93179.50;;;15.97;73.07
3250;BME280;1637;42.020;23.992;2023-05-03T10:42:37;93173.19;;;15.87;73.24
3250;BME280;1637;42.020;23.992;2023-05-03T10:45:08;93183.72;;;15.98;71.58
3250;BME280;1637;42.020;23.992;2023-05-03T10:47:37;93189.66;;;15.76;71.60
3250;BME280;1637;42.020;23.992;2023-05-03T10:50:24;93188.56;;;15.74;71.47
3250;BME280;1637;42.020;23.992;2023-05-03T10:52:51;93178.94;;;16.18;71.29
3250;BME280;1637;42.020;23.992;2023-05-03T10:55:20;93183.56;;;16.46;70.67
3250;BME280;1637;42.020;23.992;2023-05-03T10:57:52;93191.41;;;16.57;69.49
3250;BME280;1637;42.020;23.992;2023-05-03T11:00:26;93183.16;;;16.48;69.06
3250;BME280;1637;42.020;23.992;2023-05-03T11:03:21;93178.91;;;16.34;69.24
3250;BME280;1637;42.020;23.992;2023-05-03T11:05:52;93170.34;;;16.36;67.78
3250;BME280;1637;42.020;23.992;2023-05-03T11:08:20;93171.31;;;16.29;68.05
3250;BME280;1637;42.020;23.992;2023-05-03T11:10:49;93190.06;;;15.91;69.14
3250;BME280;1637;42.020;23.992;2023-05-03T11:13:22;93167.50;;;15.81;69.88
3250;BME280;1637;42.020;23.992;2023-05-03T11:15:51;93167.69;;;15.91;68.03
3250;BME280;1637;42.020;23.992;2023-05-03T11:18:18;93164.41;;;15.67;68.95
3250;BME280;1637;42.020;23.992;2023-05-03T11:20:45;93166.22;;;15.57;69.78
3250;BME280;1637;42.020;23.992;2023-05-03T11:23:12;93158.94;;;15.54;68.54
3250;BME280;1637;42.020;23.992;2023-05-03T11:25:39;93152.72;;;15.57;69.16
3250;BME280;1637;42.020;23.992;2023-05-03T11:28:06;93154.28;;;15.71;68.76
3250;BME280;1637;42.020;23.992;2023-05-03T11:30:33;93146.91;;;15.88;69.35
3250;BME280;1637;42.020;23.992;2023-05-03T11:33:03;93134.72;;;15.67;70.26
3250;BME280;1637;42.020;23.992;2023-05-03T11:35:30;93149.06;;;15.64;69.62
3250;BME280;1637;42.020;23.992;2023-05-03T11:37:57;93151.69;;;15.67;70.02
3250;BME280;1637;42.020;23.992;2023-05-03T11:40:24;93142.72;;;15.70;70.36
3250;BME280;1637;42.020;23.992;2023-05-03T11:42:55;93140.03;;;15.54;69.77
3250;BME280;1637;42.020;23.992;2023-05-03T11:45:24;93139.97;;;15.58;69.56
3250;BME280;1637;42.020;23.992;2023-05-03T11:47:52;93154.53;;;15.44;70.36
3250;BME280;1637;42.020;23.992;2023-05-03T11:50:41;93142.72;;;15.05;72.76
3250;BME280;1637;42.020;23.992;2023-05-03T11:53:09;93154.06;;;14.97;72.12
3250;BME280;1637;42.020;23.992;2023-05-03T11:55:37;93150.78;;;14.89;75.05
3250;BME280;1637;42.020;23.992;2023-05-03T11:58:07;93142.00;;;14.85;76.06
3250;BME280;1637;42.020;23.992;2023-05-03T12:00:35;93142.84;;;14.98;72.74
3250;BME280;1637;42.020;23.992;2023-05-03T12:03:02;93134.81;;;14.78;79.76
3250;BME280;1637;42.020;23.992;2023-05-03T12:05:31;93139.91;;;14.37;81.37
3250;BME280;1637;42.020;23.992;2023-05-03T12:07:57;93142.41;;;14.08;85.33
3250;BME280;1637;42.020;23.992;2023-05-03T12:10:30;93114.34;;;13.86;87.29
3250;BME280;1637;42.020;23.992;2023-05-03T12:12:58;93138.81;;;14.15;87.24
3250;BME280;1637;42.020;23.992;2023-05-03T12:15:30;93129.75;;;13.85;88.45
3250;BME280;1637;42.020;23.992;2023-05-03T12:17:58;93126.72;;;13.83;88.54
3250;BME280;1637;42.020;23.992;2023-05-03T12:20:26;93112.81;;;13.65;89.99
3250;BME280;1637;42.020;23.992;2023-05-03T12:22:59;93114.47;;;13.79;90.10
3250;BME280;1637;42.020;23.992;2023-05-03T12:25:27;93133.91;;;13.90;88.73
3250;BME280;1637;42.020;23.992;2023-05-03T12:27:58;93138.13;;;13.91;90.93
3250;BME280;1637;42.020;23.992;2023-05-03T12:30:25;93142.84;;;13.83;85.27
3250;BME280;1637;42.020;23.992;2023-05-03T12:32:52;93144.59;;;13.50;90.57
3250;BME280;1637;42.020;23.992;2023-05-03T12:35:20;93142.25;;;13.29;93.78
3250;BME280;1637;42.020;23.992;2023-05-03T12:37:47;93142.38;;;13.68;92.35
3250;BME280;1637;42.020;23.992;2023-05-03T12:40:17;93134.16;;;13.95;94.65
3250;BME280;1637;42.020;23.992;2023-05-03T12:42:45;93139.50;;;13.99;95.02
3250;BME280;1637;42.020;23.992;2023-05-03T12:45:12;93150.13;;;14.06;98.91
3250;BME280;1637;42.020;23.992;2023-05-03T12:47:39;93109.91;;;13.75;99.60
3250;BME280;1637;42.020;23.992;2023-05-03T12:50:07;93116.97;;;13.46;100.00
3250;BME280;1637;42.020;23.992;2023-05-03T12:52:35;93107.09;;;12.89;100.00
3250;BME280;1637;42.020;23.992;2023-05-03T12:55:03;93104.97;;;12.77;100.00
3250;BME280;1637;42.020;23.992;2023-05-03T12:57:31;93109.53;;;12.53;100.00
3250;BME280;1637;42.020;23.992;2023-05-03T12:59:58;93108.69;;;12.29;100.00
3250;BME280;1637;42.020;23.992;2023-05-03T13:02:25;93114.81;;;12.30;100.00
3250;BME280;1637;42.020;23.992;2023-05-03T13:04:52;93107.25;;;12.25;100.00
3250;BME280;1637;42.020;23.992;2023-05-03T13:07:21;93081.59;;;12.20;100.00
3250;BME280;1637;42.020;23.992;2023-05-03T13:09:49;93106.88;;;12.23;100.00
3250;BME280;1637;42.020;23.992;2023-05-03T13:12:16;93095.78;;;12.48;100.00
3250;BME280;1637;42.020;23.992;2023-05-03T13:14:46;93106.34;;;12.62;100.00
3250;BME280;1637;42.020;23.992;2023-05-03T13:17:13;93082.88;;;12.66;100.00
3250;BME280;1637;42.020;23.992;2023-05-03T13:19:41;93070.44;;;12.22;100.00